createdAt,value
2022-10-20T00:01:25.748Z,59.90
2022-10-20T00:03:53.092Z,60.00
2022-10-20T00:06:23.548Z,60.10
2022-10-20T00:08:50.496Z,60.20
2022-10-20T00:11:19.538Z,60.20
2022-10-20T00:13:49.163Z,60.30
2022-10-20T00:16:16.565Z,60.40
2022-10-20T00:18:43.230Z,61.00
2022-10-20T00:21:16.570Z,60.40
2022-10-20T00:23:43.567Z,60.40
2022-10-20T00:26:19.255Z,60.50
2022-10-20T00:28:46.408Z,60.50
2022-10-20T00:31:13.458Z,60.50
2022-10-20T00:33:40.463Z,60.60
2022-10-20T00:36:11.037Z,60.60
2022-10-20T00:38:37.699Z,60.50
2022-10-20T00:41:04.743Z,60.60
2022-10-20T00:43:57.654Z,60.80
2022-10-20T00:46:30.622Z,60.90
2022-10-20T00:49:01.801Z,60.90
2022-10-20T00:51:32.475Z,60.90
2022-10-20T00:54:21.625Z,61.00
2022-10-20T00:56:49.669Z,61.00
2022-10-20T00:59:21.864Z,60.90
2022-10-20T01:01:49.884Z,60.90
2022-10-20T01:04:17.568Z,61.00
2022-10-20T01:06:44.339Z,61.10
2022-10-20T01:09:11.497Z,61.10
2022-10-20T01:11:52.918Z,61.10
2022-10-20T01:14:48.551Z,61.10
2022-10-20T01:17:29.367Z,61.20
2022-10-20T01:20:14.129Z,61.10
2022-10-20T01:22:49.718Z,61.10
2022-10-20T01:25:34.263Z,61.00
2022-10-20T01:28:10.962Z,61.10
2022-10-20T01:30:46.396Z,61.20
2022-10-20T01:33:18.866Z,61.10
2022-10-20T01:35:58.584Z,61.10
2022-10-20T01:38:38.932Z,61.20
2022-10-20T01:41:20.477Z,61.20
2022-10-20T01:43:49.090Z,61.20
2022-10-20T01:46:19.091Z,61.30
2022-10-20T01:48:46.472Z,61.30
2022-10-20T01:51:13.075Z,61.40
2022-10-20T01:53:39.835Z,61.40
2022-10-20T01:56:12.384Z,61.30
2022-10-20T01:59:01.011Z,61.30
2022-10-20T02:01:32.367Z,61.50
2022-10-20T02:04:01.425Z,61.50
2022-10-20T02:06:46.975Z,61.50
2022-10-20T02:09:18.262Z,61.50
2022-10-20T02:12:10.476Z,61.60
2022-10-20T02:14:38.609Z,61.60
2022-10-20T02:17:10.593Z,61.50
2022-10-20T02:19:40.930Z,61.50
2022-10-20T02:22:09.816Z,61.60
2022-10-20T02:24:39.920Z,61.70
2022-10-20T02:27:14.230Z,61.80
2022-10-20T02:29:48.800Z,62.00
2022-10-20T02:32:17.234Z,62.00
2022-10-20T02:34:44.200Z,61.90
2022-10-20T02:37:10.931Z,61.90
2022-10-20T02:39:37.747Z,62.00
2022-10-20T02:42:05.327Z,62.70
2022-10-20T02:44:32.071Z,62.10
2022-10-20T02:46:58.703Z,62.10
2022-10-20T02:49:25.349Z,62.00
2022-10-20T02:51:51.966Z,62.10
2022-10-20T02:54:18.831Z,62.20
2022-10-20T02:56:45.649Z,62.20
2022-10-20T02:59:19.255Z,62.30
2022-10-20T03:01:46.487Z,62.20
2022-10-20T03:04:14.194Z,62.30
2022-10-20T03:06:41.867Z,62.50
2022-10-20T03:09:08.643Z,62.50
2022-10-20T03:11:35.620Z,62.50
2022-10-20T03:14:02.466Z,62.40
2022-10-20T03:16:29.664Z,62.50
2022-10-20T03:18:59.965Z,62.70
2022-10-20T03:21:30.058Z,62.70
2022-10-20T03:23:56.743Z,62.70
2022-10-20T03:26:23.762Z,62.80
2022-10-20T03:28:50.675Z,62.80
2022-10-20T03:31:17.577Z,62.90
2022-10-20T03:33:44.172Z,62.90
2022-10-20T03:36:11.458Z,62.90
2022-10-20T03:38:40.919Z,62.90
2022-10-20T03:41:07.518Z,62.90
2022-10-20T03:43:34.136Z,62.90
2022-10-20T03:46:06.392Z,63.00
2022-10-20T03:48:33.426Z,63.00
2022-10-20T03:51:01.559Z,63.00
2022-10-20T03:53:28.849Z,63.00
2022-10-20T03:55:55.514Z,63.20
2022-10-20T03:58:22.339Z,63.80
2022-10-20T04:00:49.579Z,63.30
2022-10-20T04:03:16.533Z,64.00
2022-10-20T04:05:43.306Z,63.30
2022-10-20T04:08:09.909Z,63.40
2022-10-20T04:10:36.698Z,63.40
2022-10-20T04:13:03.958Z,63.50
2022-10-20T04:15:31.094Z,63.50
2022-10-20T04:17:57.863Z,63.60
2022-10-20T04:20:24.490Z,63.70
2022-10-20T04:22:51.343Z,63.80
2022-10-20T04:25:18.278Z,64.00
2022-10-20T04:27:45.126Z,64.00
2022-10-20T04:30:11.999Z,64.00
2022-10-20T04:32:38.710Z,63.90
2022-10-20T04:35:05.836Z,64.00
2022-10-20T04:37:32.927Z,63.90
2022-10-20T04:39:59.706Z,64.00
2022-10-20T04:42:26.471Z,64.10
2022-10-20T04:44:53.387Z,64.10
2022-10-20T04:47:20.018Z,64.30
2022-10-20T04:49:46.673Z,64.40
2022-10-20T04:52:13.265Z,64.40
2022-10-20T04:54:40.075Z,64.30
2022-10-20T04:57:07.020Z,64.50
2022-10-20T04:59:33.778Z,64.50
2022-10-20T05:02:00.420Z,64.50
2022-10-20T05:04:27.340Z,64.50
2022-10-20T05:06:53.948Z,64.60
2022-10-20T05:09:20.545Z,64.70
2022-10-20T05:11:47.136Z,64.90
2022-10-20T05:14:13.792Z,64.80
2022-10-20T05:16:40.544Z,64.80
2022-10-20T05:19:07.174Z,64.90
2022-10-20T05:21:33.915Z,64.90
2022-10-20T05:24:03.396Z,64.90
2022-10-20T05:26:34.873Z,65.10
2022-10-20T05:29:04.688Z,65.10
2022-10-20T05:31:31.325Z,65.00
2022-10-20T05:33:58.671Z,65.00
2022-10-20T05:36:26.824Z,65.30
2022-10-20T05:38:55.262Z,65.40
2022-10-20T05:41:27.778Z,65.40
2022-10-20T05:43:57.393Z,65.50
2022-10-20T05:46:27.127Z,65.60
2022-10-20T05:48:56.367Z,65.70
2022-10-20T05:51:25.915Z,65.80
2022-10-20T05:53:57.059Z,65.90
2022-10-20T05:56:25.516Z,65.90
2022-10-20T05:58:52.416Z,65.80
2022-10-20T06:01:24.487Z,66.00
2022-10-20T06:03:52.616Z,66.00
2022-10-20T06:06:21.438Z,66.00
2022-10-20T06:08:48.712Z,66.10
2022-10-20T06:11:15.735Z,66.00
2022-10-20T06:13:42.450Z,66.20
2022-10-20T06:16:12.022Z,66.30
2022-10-20T06:18:38.848Z,66.30
2022-10-20T06:21:08.234Z,66.30
2022-10-20T06:23:34.972Z,66.30
2022-10-20T06:26:03.813Z,66.30
2022-10-20T06:28:31.736Z,66.40
2022-10-20T06:30:59.360Z,66.40
2022-10-20T06:33:29.040Z,66.40
2022-10-20T06:36:01.189Z,66.60
2022-10-20T06:38:28.472Z,66.60
2022-10-20T06:40:55.250Z,66.40
2022-10-20T06:43:22.299Z,66.40
2022-10-20T06:46:00.427Z,66.50
2022-10-20T06:48:28.348Z,66.50
2022-10-20T06:51:27.564Z,66.50
2022-10-20T06:53:54.174Z,66.70
2022-10-20T06:56:23.779Z,66.60
2022-10-20T06:58:52.578Z,66.60
2022-10-20T07:01:25.579Z,66.60
2022-10-20T07:03:55.055Z,66.60
2022-10-20T07:06:25.772Z,66.70
2022-10-20T07:08:56.593Z,66.50
2022-10-20T07:11:25.925Z,66.60
2022-10-20T07:13:53.031Z,66.50
2022-10-20T07:16:23.435Z,66.50
2022-10-20T07:18:50.421Z,66.50
2022-10-20T07:21:19.877Z,66.60
2022-10-20T07:23:47.263Z,66.60
2022-10-20T07:26:27.972Z,66.60
2022-10-20T07:28:57.431Z,66.70
2022-10-20T07:31:36.388Z,66.60
2022-10-20T07:34:20.412Z,66.60
2022-10-20T07:36:51.299Z,66.70
2022-10-20T07:39:17.999Z,66.80
2022-10-20T07:41:47.255Z,66.70
2022-10-20T07:44:14.379Z,66.80
2022-10-20T07:46:41.014Z,66.80
2022-10-20T07:51:55.405Z,66.70
2022-10-20T07:54:22.289Z,66.80
2022-10-20T07:56:49.616Z,66.60
2022-10-20T07:59:16.537Z,66.70
2022-10-20T08:01:43.766Z,66.70
2022-10-20T08:04:11.048Z,66.60
2022-10-20T08:06:39.123Z,66.60
2022-10-20T08:09:06.434Z,66.60
2022-10-20T08:11:33.179Z,66.50
2022-10-20T08:13:59.818Z,66.50
2022-10-20T08:16:32.470Z,66.40
2022-10-20T08:21:42.601Z,67.00
2022-10-20T08:24:09.388Z,66.40
2022-10-20T08:26:36.017Z,66.30
2022-10-20T08:29:02.801Z,66.30
2022-10-20T08:31:29.461Z,66.20
2022-10-20T08:33:56.835Z,66.10
2022-10-20T08:36:23.675Z,66.20
2022-10-20T08:38:50.522Z,66.10
2022-10-20T08:41:27.177Z,66.10
2022-10-20T08:43:57.386Z,66.00
2022-10-20T08:46:32.374Z,65.90
2022-10-20T08:48:59.703Z,65.90
2022-10-20T08:51:31.871Z,65.90
2022-10-20T08:54:00.372Z,65.90
2022-10-20T08:56:33.184Z,65.70
2022-10-20T08:59:00.257Z,65.60
2022-10-20T09:01:33.290Z,65.40
2022-10-20T09:04:05.098Z,65.30
2022-10-20T09:06:32.135Z,65.40
2022-10-20T09:08:58.757Z,65.30
2022-10-20T09:11:31.395Z,65.20
2022-10-20T09:13:59.134Z,65.00
2022-10-20T09:16:41.726Z,65.00
2022-10-20T09:19:21.396Z,65.00
2022-10-20T09:21:52.611Z,64.90
2022-10-20T09:24:21.757Z,64.80
2022-10-20T09:26:58.787Z,64.70
2022-10-20T09:29:36.926Z,64.60
2022-10-20T09:32:34.008Z,64.50
2022-10-20T09:34:50.451Z,64.50
2022-10-20T09:37:19.584Z,64.50
2022-10-20T09:39:59.532Z,64.40
2022-10-20T09:42:34.010Z,64.40
2022-10-20T09:45:16.474Z,64.40
2022-10-20T09:47:45.896Z,64.40
2022-10-20T09:50:26.092Z,64.30
2022-10-20T09:52:53.135Z,64.20
2022-10-20T09:55:25.762Z,64.20
2022-10-20T09:57:55.092Z,64.20
2022-10-20T10:00:38.771Z,64.20
2022-10-20T10:03:09.651Z,64.30
2022-10-20T10:05:36.479Z,64.30
2022-10-20T10:08:03.159Z,64.20
2022-10-20T10:10:31.894Z,64.20
2022-10-20T10:13:00.902Z,64.30
2022-10-20T10:15:36.620Z,64.30
2022-10-20T10:18:19.156Z,64.20
2022-10-20T10:20:46.321Z,64.20
2022-10-20T10:23:25.099Z,64.20
2022-10-20T10:25:52.836Z,64.20
2022-10-20T10:28:42.471Z,64.20
2022-10-20T10:31:25.275Z,64.20
2022-10-20T10:34:22.765Z,64.20
2022-10-20T10:36:49.359Z,64.20
2022-10-20T10:39:16.462Z,64.30
2022-10-20T10:41:52.325Z,64.40
2022-10-20T10:44:36.641Z,64.50
2022-10-20T10:47:29.126Z,64.70
2022-10-20T10:50:24.407Z,64.80
2022-10-20T10:53:00.066Z,64.90
2022-10-20T10:55:49.121Z,64.90
2022-10-20T10:58:26.079Z,64.90
2022-10-20T11:01:01.585Z,64.90
2022-10-20T11:03:53.109Z,65.00
2022-10-20T11:06:44.476Z,65.30
2022-10-20T11:09:28.084Z,65.40
2022-10-20T11:12:27.738Z,65.60
2022-10-20T11:15:12.871Z,65.80
2022-10-20T11:17:58.501Z,65.90
2022-10-20T11:20:46.255Z,66.00
2022-10-20T11:23:34.738Z,66.00
2022-10-20T11:26:18.991Z,66.20
2022-10-20T11:28:48.717Z,66.30
2022-10-20T11:31:39.841Z,66.30
2022-10-20T11:34:14.420Z,66.50
2022-10-20T11:36:46.442Z,66.60
2022-10-20T11:39:49.076Z,66.70
2022-10-20T11:42:34.936Z,66.80
2022-10-20T11:45:22.286Z,66.80
2022-10-20T11:47:54.015Z,66.90
2022-10-20T11:50:20.944Z,67.10
2022-10-20T11:52:55.477Z,67.20
2022-10-20T11:55:24.902Z,67.30
2022-10-20T11:58:03.143Z,67.40
2022-10-20T12:00:54.050Z,67.60
2022-10-20T12:03:28.391Z,67.80
2022-10-20T12:05:57.787Z,67.80
2022-10-20T12:08:37.724Z,67.80
2022-10-20T12:11:42.041Z,67.90
2022-10-20T12:14:14.427Z,68.10
2022-10-20T12:16:58.147Z,68.00
2022-10-20T12:19:34.333Z,68.20
2022-10-20T12:22:04.883Z,68.20
2022-10-20T12:24:54.319Z,68.30
2022-10-20T12:27:23.380Z,68.50
2022-10-20T12:29:51.384Z,68.60
2022-10-20T12:32:34.833Z,68.60
2022-10-20T12:35:24.087Z,68.80
2022-10-20T12:38:04.278Z,69.10
2022-10-20T12:40:58.077Z,69.10
2022-10-20T12:43:31.943Z,69.30
2022-10-20T12:46:11.058Z,69.30
2022-10-20T12:48:44.535Z,69.30
2022-10-20T12:51:21.783Z,69.60
2022-10-20T12:53:56.674Z,70.10
2022-10-20T12:56:25.161Z,69.60
2022-10-20T12:59:28.487Z,69.60
2022-10-20T13:02:10.161Z,69.80
2022-10-20T13:04:58.126Z,69.80
2022-10-20T13:07:46.269Z,70.00
2022-10-20T13:10:30.978Z,70.10
2022-10-20T13:13:03.715Z,70.20
2022-10-20T13:15:36.374Z,70.50
2022-10-20T13:18:12.018Z,70.80
2022-10-20T13:21:00.288Z,70.60
2022-10-20T13:23:43.286Z,70.70
2022-10-20T13:26:18.693Z,71.20
2022-10-20T13:28:48.207Z,71.30
2022-10-20T13:31:40.104Z,71.40
2022-10-20T13:34:16.110Z,71.70
2022-10-20T13:36:52.677Z,71.70
2022-10-20T13:39:27.756Z,71.70
2022-10-20T13:42:13.180Z,71.70
2022-10-20T13:45:03.365Z,71.40
2022-10-20T13:47:47.719Z,71.20
2022-10-20T13:50:35.364Z,71.10
2022-10-20T13:53:18.400Z,70.90
2022-10-20T13:56:06.857Z,71.10
2022-10-20T13:58:34.493Z,70.80
2022-10-20T14:01:06.734Z,71.00
2022-10-20T14:03:42.116Z,71.00
2022-10-20T14:06:29.510Z,71.20
2022-10-20T14:08:58.059Z,71.20
2022-10-20T14:11:29.596Z,71.10
2022-10-20T14:13:58.872Z,71.20
2022-10-20T14:16:28.684Z,71.30
2022-10-20T14:19:09.185Z,71.30
2022-10-20T14:21:49.204Z,71.40
2022-10-20T14:24:40.670Z,71.50
2022-10-20T14:27:15.738Z,71.60
2022-10-20T14:29:42.787Z,71.50
2022-10-20T14:32:17.208Z,71.50
2022-10-20T14:34:56.865Z,71.60
2022-10-20T14:37:41.534Z,71.70
2022-10-20T14:40:21.312Z,71.80
2022-10-20T14:42:48.461Z,71.90
2022-10-20T14:45:26.366Z,71.90
2022-10-20T14:47:53.981Z,72.10
2022-10-20T14:50:31.214Z,72.10
2022-10-20T14:52:57.904Z,72.00
2022-10-20T14:55:33.027Z,71.90
2022-10-20T14:57:59.683Z,71.80
2022-10-20T15:00:35.312Z,71.70
2022-10-20T15:03:06.933Z,71.90
2022-10-20T15:05:39.993Z,71.80
2022-10-20T15:08:22.145Z,71.90
2022-10-20T15:10:48.819Z,72.00
2022-10-20T15:13:29.655Z,72.10
2022-10-20T15:15:57.891Z,72.10
2022-10-20T15:18:25.050Z,72.00
2022-10-20T15:20:52.724Z,72.00
2022-10-20T15:23:23.659Z,72.00
2022-10-20T15:26:10.438Z,72.20
2022-10-20T15:28:50.455Z,72.10
2022-10-20T15:31:25.564Z,72.20
2022-10-20T15:33:53.639Z,72.30
2022-10-20T15:36:22.750Z,72.20
2022-10-20T15:38:50.287Z,72.10
2022-10-20T15:41:19.415Z,72.20
2022-10-20T15:43:46.017Z,72.70
2022-10-20T15:46:15.634Z,72.20
2022-10-20T15:48:43.197Z,72.20
2022-10-20T15:51:26.868Z,72.20
2022-10-20T15:53:53.897Z,72.30
2022-10-20T15:56:20.996Z,72.20
2022-10-20T15:58:50.046Z,72.10
2022-10-20T16:01:18.290Z,72.00
2022-10-20T16:03:46.340Z,72.50
2022-10-20T16:06:15.551Z,71.90
2022-10-20T16:08:44.218Z,71.70
2022-10-20T16:11:13.412Z,71.50
2022-10-20T16:13:40.553Z,71.50
2022-10-20T16:16:10.508Z,71.50
2022-10-20T16:18:37.182Z,71.40
2022-10-20T16:21:05.630Z,71.30
2022-10-20T16:23:34.149Z,71.30
2022-10-20T16:26:03.624Z,71.30
2022-10-20T16:28:30.196Z,71.30
2022-10-20T16:31:11.426Z,71.30
2022-10-20T16:33:38.264Z,71.20
2022-10-20T16:38:39.034Z,71.10
2022-10-20T16:41:11.315Z,71.10
2022-10-20T16:43:43.184Z,71.00
2022-10-20T16:46:11.802Z,71.00
2022-10-20T16:48:41.376Z,71.00
2022-10-20T16:51:11.207Z,71.10
2022-10-20T16:53:38.413Z,71.00
2022-10-20T16:56:05.602Z,71.00
2022-10-20T16:58:32.425Z,71.10
2022-10-20T17:01:11.651Z,71.10
2022-10-20T17:06:15.527Z,71.30
2022-10-20T17:08:42.444Z,71.30
2022-10-20T17:11:14.917Z,71.30
2022-10-20T17:13:42.061Z,71.20
2022-10-20T17:16:11.955Z,71.20
2022-10-20T17:18:39.140Z,71.20
2022-10-20T17:21:06.651Z,71.20
2022-10-20T17:23:41.799Z,71.20
2022-10-20T17:26:14.154Z,71.30
2022-10-20T17:28:40.879Z,71.30
2022-10-20T17:31:09.793Z,71.40
2022-10-20T17:33:37.916Z,71.50
2022-10-20T17:36:05.762Z,71.60
2022-10-20T17:38:32.828Z,71.80
2022-10-20T17:41:07.292Z,71.90
2022-10-20T17:43:34.022Z,72.00
2022-10-20T17:46:01.783Z,72.00
2022-10-20T17:48:29.018Z,72.20
2022-10-20T17:51:03.275Z,72.30
2022-10-20T17:53:37.877Z,72.30
2022-10-20T17:56:10.938Z,72.40
2022-10-20T17:58:37.986Z,72.50
2022-10-20T18:01:08.802Z,72.60
2022-10-20T18:03:35.769Z,72.80
2022-10-20T18:06:14.205Z,72.80
2022-10-20T18:08:41.354Z,73.00
2022-10-20T18:11:16.489Z,72.90
2022-10-20T18:13:43.319Z,73.00
2022-10-20T18:16:13.047Z,72.90
2022-10-20T18:18:41.315Z,73.00
2022-10-20T18:21:10.168Z,73.00
2022-10-20T18:23:40.552Z,73.10
2022-10-20T18:26:11.074Z,73.20
2022-10-20T18:28:43.196Z,73.20
2022-10-20T18:31:34.104Z,73.30
2022-10-20T18:34:07.141Z,73.30
2022-10-20T18:36:37.942Z,73.30
2022-10-20T18:39:07.531Z,73.40
2022-10-20T18:41:38.173Z,73.30
2022-10-20T18:44:12.318Z,73.30
2022-10-20T18:46:39.722Z,73.30
2022-10-20T18:49:08.070Z,73.30
2022-10-20T18:51:35.711Z,73.30
2022-10-20T18:54:03.391Z,73.30
2022-10-20T18:56:30.912Z,73.20
2022-10-20T18:59:00.471Z,73.30
2022-10-20T19:01:30.563Z,73.30
2022-10-20T19:03:58.790Z,73.30
2022-10-20T19:06:41.166Z,73.30
2022-10-20T19:09:08.964Z,73.30
2022-10-20T19:11:37.835Z,73.20
2022-10-20T19:14:05.020Z,73.20
2022-10-20T19:16:33.915Z,73.20
2022-10-20T19:19:02.335Z,73.30
2022-10-20T19:21:30.059Z,73.30
2022-10-20T19:24:00.164Z,73.30
2022-10-20T19:26:29.602Z,73.10
2022-10-20T19:29:05.582Z,73.20
2022-10-20T19:31:44.992Z,73.20
2022-10-20T19:34:21.348Z,73.20
2022-10-20T19:36:48.547Z,73.10
2022-10-20T19:39:19.203Z,73.10
2022-10-20T19:41:45.944Z,73.20
2022-10-20T19:44:12.715Z,73.20
2022-10-20T19:46:40.162Z,73.20
2022-10-20T19:51:40.191Z,73.30
2022-10-20T19:54:07.736Z,73.20
2022-10-20T19:56:34.766Z,73.20
2022-10-20T19:59:02.373Z,73.10
2022-10-20T20:01:29.475Z,73.20
2022-10-20T20:03:56.339Z,73.20
2022-10-20T20:06:23.233Z,73.10
2022-10-20T20:08:55.079Z,73.10
2022-10-20T20:11:26.300Z,73.10
2022-10-20T20:13:58.647Z,73.10
2022-10-20T20:16:26.614Z,73.10
2022-10-20T20:18:53.424Z,73.00
2022-10-20T20:21:21.073Z,73.10
2022-10-20T20:23:58.992Z,73.10
2022-10-20T20:26:28.470Z,73.00
2022-10-20T20:28:55.934Z,73.00
2022-10-20T20:31:23.590Z,73.10
2022-10-20T20:33:52.755Z,73.10
2022-10-20T20:36:21.375Z,73.10
2022-10-20T20:38:47.965Z,73.10
2022-10-20T20:41:16.676Z,73.10
2022-10-20T20:43:46.628Z,73.10
2022-10-20T20:46:16.067Z,73.10
2022-10-20T20:48:43.456Z,73.20
2022-10-20T20:51:10.359Z,73.10
2022-10-20T20:53:37.796Z,73.10
2022-10-20T20:56:10.267Z,73.10
2022-10-20T20:58:36.974Z,73.10
2022-10-20T21:01:09.082Z,73.10
2022-10-20T21:03:36.596Z,73.10
2022-10-20T21:06:08.362Z,73.10
2022-10-20T21:08:36.638Z,73.20
2022-10-20T21:11:07.441Z,73.30
2022-10-20T21:13:35.529Z,73.30
2022-10-20T21:16:15.363Z,73.30
2022-10-20T21:18:44.575Z,73.30
2022-10-20T21:21:14.238Z,73.30
2022-10-20T21:23:41.787Z,73.40
2022-10-20T21:26:10.047Z,73.50
2022-10-20T21:28:36.793Z,73.50
2022-10-20T21:31:07.992Z,73.50
2022-10-20T21:33:35.586Z,73.60
2022-10-20T21:36:04.099Z,73.60
2022-10-20T21:38:32.584Z,73.60
2022-10-20T21:41:32.474Z,73.60
2022-10-20T21:44:00.630Z,73.80
2022-10-20T21:46:30.458Z,73.80
2022-10-20T21:49:13.472Z,73.90
2022-10-20T21:51:58.390Z,74.00
2022-10-20T21:54:27.621Z,74.10
2022-10-20T21:56:55.258Z,74.00
2022-10-20T21:59:30.033Z,74.00
2022-10-20T22:01:59.779Z,74.20
2022-10-20T22:04:28.522Z,74.10
2022-10-20T22:06:55.892Z,74.10
2022-10-20T22:09:23.668Z,74.10
2022-10-20T22:11:54.948Z,74.10
2022-10-20T22:14:21.991Z,74.20
2022-10-20T22:16:48.713Z,74.00
2022-10-20T22:19:23.032Z,74.10
2022-10-20T22:21:51.231Z,74.10
2022-10-20T22:24:18.679Z,74.10
2022-10-20T22:26:46.154Z,74.20
2022-10-20T22:29:13.192Z,74.20
2022-10-20T22:31:40.623Z,74.10
2022-10-20T22:34:07.790Z,74.10
2022-10-20T22:36:34.800Z,74.60
2022-10-20T22:39:01.468Z,74.20
2022-10-20T22:41:28.331Z,74.20
2022-10-20T22:43:54.995Z,74.30
2022-10-20T22:46:21.697Z,74.30
2022-10-20T22:48:48.537Z,74.40
2022-10-20T22:51:15.740Z,74.40
2022-10-20T22:53:43.001Z,74.30
2022-10-20T22:56:21.519Z,74.30
2022-10-20T22:58:49.155Z,74.30
2022-10-20T23:01:18.987Z,74.30
2022-10-20T23:03:46.669Z,75.00
2022-10-20T23:06:16.016Z,74.30
2022-10-20T23:08:45.279Z,74.30
2022-10-20T23:11:13.353Z,74.30
2022-10-20T23:13:40.015Z,74.20
2022-10-20T23:16:07.103Z,74.20
2022-10-20T23:18:34.177Z,74.20
2022-10-20T23:21:00.778Z,74.20
2022-10-20T23:23:27.899Z,74.20
2022-10-20T23:25:54.697Z,74.20
2022-10-20T23:28:21.481Z,74.30
2022-10-20T23:30:48.367Z,74.30
2022-10-20T23:33:15.026Z,74.40
2022-10-20T23:35:41.736Z,74.40
2022-10-20T23:38:09.729Z,74.40
2022-10-20T23:40:37.611Z,74.20
2022-10-20T23:43:04.467Z,74.40
2022-10-20T23:45:34.111Z,74.40
2022-10-20T23:48:03.842Z,74.40
2022-10-20T23:50:30.439Z,74.50
2022-10-20T23:52:57.018Z,74.60
2022-10-20T23:55:23.870Z,74.60
2022-10-20T23:57:50.758Z,74.70
